Time;durP1;ratioP1;P1;durP2;ratioP2;P2;SDS_P1;SDS_P2;PMS_P1;PMS_P2;Temp;Humidity;BMP_temperature;BMP_pressure;BME280_temperature;BME280_humidity;BME280_pressure;Samples;Min_cycle;Max_cycle;Signal;HPM_P1;HPM_P2
2022/03/22 00:00:46;;;;;;;15.88;12.93;;;4.80;71.20;;;;;;5036282;28;20230;-81
2022/03/22 00:03:14;;;;;;;16.45;14.10;;;4.90;71.00;;;;;;5035958;28;20668;-81
2022/03/22 00:05:42;;;;;;;16.88;15.20;;;4.80;71.40;;;;;;5036465;28;20262;-83
2022/03/22 00:08:10;;;;;;;19.63;13.60;;;4.80;72.20;;;;;;5035619;28;20207;-83
2022/03/22 00:10:36;;;;;;;16.80;14.35;;;4.80;73.30;;;;;;5036147;28;20222;-83
2022/03/22 00:13:04;;;;;;;25.15;14.23;;;4.70;74.50;;;;;;5035783;28;20248;-82
2022/03/22 00:15:30;;;;;;;14.75;12.55;;;4.60;75.90;;;;;;5036200;28;20224;-81
2022/03/22 00:17:59;;;;;;;14.65;12.60;;;4.50;76.80;;;;;;5035775;28;20202;-81
2022/03/22 00:20:27;;;;;;;16.63;14.07;;;4.60;76.80;;;;;;5035364;28;20281;-81
2022/03/22 00:22:54;;;;;;;22.38;16.73;;;4.60;76.40;;;;;;5036722;28;20637;-81
2022/03/22 00:25:21;;;;;;;17.45;14.02;;;4.50;75.90;;;;;;5036089;28;20195;-81
2022/03/22 00:27:53;;;;;;;18.27;16.02;;;4.50;76.40;;;;;;5035310;28;20203;-81
2022/03/22 00:30:21;;;;;;;19.95;14.98;;;4.40;77.90;;;;;;5035624;28;20249;-81
2022/03/22 00:32:53;;;;;;;14.07;12.57;;;4.40;77.80;;;;;;5036096;28;20238;-81
2022/03/22 00:35:23;;;;;;;17.23;14.02;;;4.30;76.70;;;;;;5038288;28;20206;-81
2022/03/22 00:37:51;;;;;;;16.75;14.02;;;4.40;76.60;;;;;;5042786;28;20203;-81
2022/03/22 00:40:18;;;;;;;17.55;13.20;;;4.40;76.50;;;;;;5037662;28;20296;-81
2022/03/22 00:42:46;;;;;;;14.15;12.35;;;4.40;75.90;;;;;;5036578;28;20214;-81
2022/03/22 00:45:16;;;;;;;17.25;13.23;;;4.40;76.10;;;;;;5036797;28;20205;-81
2022/03/22 00:47:44;;;;;;;13.38;11.52;;;4.40;75.80;;;;;;5037786;28;20209;-81
2022/03/22 00:50:10;;;;;;;14.57;13.05;;;4.40;75.90;;;;;;5036985;28;20218;-81
2022/03/22 00:52:38;;;;;;;17.90;14.57;;;4.30;76.50;;;;;;5036857;28;20214;-80
2022/03/22 00:55:06;;;;;;;20.30;13.52;;;4.30;77.10;;;;;;5036937;28;20214;-81
2022/03/22 00:57:33;;;;;;;14.90;13.30;;;4.30;77.20;;;;;;5036830;28;20259;-81
2022/03/22 01:00:04;;;;;;;18.00;12.27;;;4.40;76.60;;;;;;5036527;28;20296;-81
2022/03/22 01:02:34;;;;;;;18.08;14.05;;;4.30;76.10;;;;;;5037377;28;20261;-80
2022/03/22 01:05:01;;;;;;;14.07;12.75;;;4.30;77.10;;;;;;5036251;28;20202;-81
2022/03/22 01:07:29;;;;;;;18.27;12.88;;;4.30;77.60;;;;;;5036989;28;20204;-81
2022/03/22 01:09:57;;;;;;;13.82;12.38;;;4.20;77.80;;;;;;5039919;28;20256;-81
2022/03/22 01:12:24;;;;;;;14.73;13.43;;;4.20;77.60;;;;;;5040773;28;20213;-80
2022/03/22 01:14:50;;;;;;;15.32;12.40;;;4.10;77.00;;;;;;5040889;28;20206;-81
2022/03/22 01:17:17;;;;;;;16.88;12.43;;;4.10;78.20;;;;;;5040649;28;20726;-81
2022/03/22 01:19:46;;;;;;;15.98;11.77;;;4.10;77.60;;;;;;5041052;28;20218;-81
2022/03/22 01:22:12;;;;;;;14.13;10.45;;;4.10;76.60;;;;;;5039970;28;20213;-81
2022/03/22 01:24:39;;;;;;;14.30;11.57;;;4.10;76.30;;;;;;5040669;28;20214;-81
2022/03/22 01:27:07;;;;;;;13.85;12.43;;;4.20;75.70;;;;;;5040584;28;20210;-80
2022/03/22 01:29:35;;;;;;;11.70;10.52;;;4.20;75.70;;;;;;5040790;28;20223;-81
2022/03/22 01:32:02;;;;;;;14.60;11.98;;;4.20;74.70;;;;;;5039968;28;20217;-80
2022/03/22 01:34:29;;;;;;;11.27;10.27;;;4.10;74.70;;;;;;5039666;28;20252;-81
2022/03/22 01:36:56;;;;;;;14.93;13.10;;;4.10;75.00;;;;;;5040962;28;20834;-81
2022/03/22 01:39:22;;;;;;;17.58;12.55;;;4.10;75.50;;;;;;5039891;28;20214;-81
2022/03/22 01:41:49;;;;;;;14.30;12.85;;;4.00;75.90;;;;;;5040328;28;20214;-81
2022/03/22 01:44:17;;;;;;;16.25;13.75;;;4.00;76.70;;;;;;5039733;28;20217;-81
2022/03/22 01:46:46;;;;;;;13.93;12.55;;;4.00;77.10;;;;;;5039943;28;20194;-81
2022/03/22 01:49:12;;;;;;;13.80;11.15;;;4.00;76.30;;;;;;5039260;28;20199;-80
2022/03/22 01:51:41;;;;;;;15.82;11.52;;;4.00;75.60;;;;;;5039678;28;20220;-81
2022/03/22 01:54:08;;;;;;;11.52;9.75;;;4.00;75.60;;;;;;5040007;28;20206;-81
2022/03/22 01:56:36;;;;;;;12.07;10.88;;;4.00;75.50;;;;;;5040040;28;20222;-81
2022/03/22 01:59:02;;;;;;;11.55;10.45;;;4.00;75.40;;;;;;5039577;28;20228;-80
2022/03/22 02:07:01;;;;;;;13.95;11.48;;;4.00;76.00;;;;;;5009445;28;20217;-81
2022/03/22 02:09:29;;;;;;;14.25;11.38;;;4.00;76.00;;;;;;5039744;28;20198;-81
2022/03/22 02:11:56;;;;;;;13.60;12.02;;;4.00;76.20;;;;;;5039569;28;20209;-80
2022/03/22 02:14:23;;;;;;;14.15;10.40;;;3.90;76.50;;;;;;5039700;28;20207;-81
2022/03/22 02:16:51;;;;;;;15.73;11.68;;;3.90;77.20;;;;;;5039906;28;20229;-81
2022/03/22 02:19:18;;;;;;;15.32;11.77;;;3.90;77.90;;;;;;5039669;28;20206;-81
2022/03/22 02:21:46;;;;;;;14.98;11.95;;;3.90;78.30;;;;;;5038178;28;20205;-81
2022/03/22 02:24:15;;;;;;;17.23;11.68;;;3.90;78.70;;;;;;5039754;28;20202;-80
2022/03/22 02:26:42;;;;;;;13.35;11.95;;;3.80;79.10;;;;;;5039345;28;20202;-81
2022/03/22 02:29:09;;;;;;;14.85;12.07;;;3.80;79.50;;;;;;5039303;28;20206;-81
2022/03/22 02:31:35;;;;;;;15.23;12.15;;;3.80;80.00;;;;;;5039060;28;20206;-80
2022/03/22 02:34:04;;;;;;;11.85;10.65;;;3.80;80.00;;;;;;5039573;28;20205;-81
2022/03/22 02:36:31;;;;;;;14.25;11.52;;;3.80;80.50;;;;;;5038897;28;20218;-81
2022/03/22 02:38:57;;;;;;;11.90;10.57;;;3.70;80.30;;;;;;5038771;28;20209;-80
2022/03/22 02:41:26;;;;;;;13.15;11.85;;;3.70;80.20;;;;;;5038900;28;20231;-81
2022/03/22 02:43:54;;;;;;;17.70;11.43;;;3.70;79.80;;;;;;5038788;28;20210;-81
2022/03/22 02:46:21;;;;;;;17.92;12.05;;;3.60;79.70;;;;;;5038354;28;20202;-81
2022/03/22 02:48:48;;;;;;;16.35;11.75;;;3.60;80.00;;;;;;5038988;28;20206;-80
2022/03/22 02:51:15;;;;;;;15.32;11.93;;;3.60;80.50;;;;;;5038622;28;20222;-81
2022/03/22 02:53:42;;;;;;;17.17;12.27;;;3.60;80.80;;;;;;5038708;28;20629;-81
2022/03/22 02:56:09;;;;;;;15.40;11.35;;;3.60;80.90;;;;;;5038568;28;20230;-81
2022/03/22 02:58:37;;;;;;;15.30;11.85;;;3.60;80.80;;;;;;5038690;28;20209;-82
2022/03/22 03:01:04;;;;;;;13.43;11.25;;;3.60;80.90;;;;;;5038997;28;20232;-81
2022/03/22 03:03:32;;;;;;;18.85;12.30;;;3.50;80.90;;;;;;5038330;28;20207;-81
2022/03/22 03:05:59;;;;;;;13.98;12.57;;;3.50;81.40;;;;;;5039087;28;20241;-81
2022/03/22 03:08:26;;;;;;;15.65;13.15;;;3.50;81.80;;;;;;5039171;28;20236;-80
2022/03/22 03:10:53;;;;;;;11.40;10.27;;;3.50;81.90;;;;;;5038580;28;20283;-81
2022/03/22 03:13:20;;;;;;;15.00;12.38;;;3.50;82.00;;;;;;5038802;28;20206;-80
2022/03/22 03:15:50;;;;;;;13.85;11.10;;;3.50;82.10;;;;;;5038450;28;20206;-81
2022/03/22 03:18:17;;;;;;;17.83;12.45;;;3.40;82.10;;;;;;5038540;28;20257;-81
2022/03/22 03:20:44;;;;;;;12.93;11.60;;;3.40;82.20;;;;;;5037808;28;20222;-81
2022/03/22 03:23:11;;;;;;;13.77;11.15;;;3.30;82.50;;;;;;5039516;28;20202;-81
2022/03/22 03:25:38;;;;;;;10.52;9.57;;;3.40;82.80;;;;;;5040176;28;20205;-81
2022/03/22 03:28:05;;;;;;;13.27;11.60;;;3.40;83.00;;;;;;5038936;28;20205;-81
2022/03/22 03:30:32;;;;;;;13.18;11.60;;;3.40;83.40;;;;;;5038402;28;20226;-81
2022/03/22 03:33:00;;;;;;;11.77;9.85;;;3.30;83.70;;;;;;5037785;28;20201;-81
2022/03/22 03:35:26;;;;;;;12.55;11.35;;;3.30;83.90;;;;;;5037736;28;20210;-81
2022/03/22 03:37:53;;;;;;;15.65;12.90;;;3.30;84.40;;;;;;5038099;28;20218;-80
2022/03/22 03:40:20;;;;;;;14.10;11.02;;;3.20;84.60;;;;;;5037808;28;20222;-81
2022/03/22 03:42:46;;;;;;;17.27;12.13;;;3.20;84.70;;;;;;5037149;28;20222;-81
2022/03/22 03:48:00;;;;;;;12.88;11.50;;;3.20;85.00;;;;;;5036434;28;20201;-81
2022/03/22 03:50:27;;;;;;;17.20;12.70;;;3.10;86.10;;;;;;5036264;28;20225;-81
2022/03/22 03:52:54;;;;;;;13.70;10.93;;;3.10;85.90;;;;;;5036619;28;20202;-81
2022/03/22 03:55:21;;;;;;;15.50;13.38;;;3.10;85.90;;;;;;5036397;28;20209;-81
2022/03/22 03:57:48;;;;;;;13.90;12.52;;;3.10;85.60;;;;;;5036765;28;20225;-81
2022/03/22 04:00:16;;;;;;;12.95;11.68;;;3.10;85.40;;;;;;5036809;28;20248;-81
2022/03/22 04:02:43;;;;;;;13.07;11.77;;;3.10;85.30;;;;;;5038017;28;20259;-81
2022/03/22 04:05:12;;;;;;;13.60;12.18;;;3.10;85.50;;;;;;5037549;28;20200;-81
2022/03/22 04:07:39;;;;;;;18.75;11.43;;;3.10;85.20;;;;;;5037879;28;20212;-82
2022/03/22 04:10:06;;;;;;;12.77;10.20;;;3.10;85.10;;;;;;5038008;28;20224;-81
2022/03/22 04:12:40;;;;;;;15.75;11.93;;;3.10;85.40;;;;;;5037830;28;20206;-81
2022/03/22 04:15:07;;;;;;;17.27;15.18;;;3.20;85.70;;;;;;5036773;28;20210;-81
2022/03/22 04:17:34;;;;;;;17.13;13.30;;;3.10;85.70;;;;;;5035665;28;20260;-81
2022/03/22 04:20:01;;;;;;;14.18;11.90;;;3.10;85.90;;;;;;5036028;28;20229;-81
2022/03/22 04:22:29;;;;;;;14.85;12.63;;;3.10;85.70;;;;;;5035821;28;20202;-81
2022/03/22 04:24:56;;;;;;;15.30;11.45;;;3.10;85.90;;;;;;5036143;28;20232;-81
2022/03/22 04:32:52;;;;;;;13.30;11.70;;;3.10;86.50;;;;;;5035313;28;20205;-81
2022/03/22 04:35:24;;;;;;;16.65;10.93;;;3.10;85.90;;;;;;5036020;28;20209;-81
2022/03/22 04:37:53;;;;;;;16.73;13.70;;;3.00;85.60;;;;;;5036370;28;20233;-81
2022/03/22 04:40:20;;;;;;;14.55;11.80;;;3.00;85.80;;;;;;5035778;28;20283;-81
2022/03/22 04:42:48;;;;;;;12.40;11.00;;;3.00;85.80;;;;;;5035313;28;20598;-81
2022/03/22 04:45:15;;;;;;;12.15;10.95;;;3.00;85.80;;;;;;5043912;28;20210;-82
2022/03/22 04:47:45;;;;;;;13.65;11.13;;;3.00;86.00;;;;;;5049930;28;20206;-82
2022/03/22 04:50:13;;;;;;;12.35;11.15;;;3.00;86.20;;;;;;5049562;28;20221;-88
2022/03/22 04:58:10;;;;;;;14.15;12.65;;;2.90;86.90;;;;;;5049585;28;20251;-82
2022/03/22 05:00:37;;;;;;;12.43;11.15;;;2.90;87.10;;;;;;5047837;28;20229;-83
2022/03/22 05:03:05;;;;;;;16.52;12.20;;;2.90;87.50;;;;;;5048741;28;20205;-82
2022/03/22 05:08:28;;;;;;;13.00;10.13;;;2.90;88.70;;;;;;4988041;28;20191;-82
2022/03/22 05:10:56;;;;;;;14.25;12.70;;;2.80;88.90;;;;;;5033952;28;20840;-81
2022/03/22 05:13:23;;;;;;;12.80;11.30;;;2.80;89.30;;;;;;5048878;28;20205;-82
2022/03/22 05:15:50;;;;;;;15.23;11.52;;;2.80;89.50;;;;;;5049576;28;20214;-84
2022/03/22 05:18:17;;;;;;;15.38;12.15;;;2.80;90.00;;;;;;5049176;28;20224;-81
2022/03/22 05:20:44;;;;;;;16.98;11.00;;;2.80;90.20;;;;;;5048582;28;20236;-82
2022/03/22 05:23:10;;;;;;;12.45;11.27;;;2.80;90.40;;;;;;5049463;28;20231;-82
2022/03/22 05:25:37;;;;;;;15.80;12.98;;;2.80;90.70;;;;;;5049432;28;20209;-82
2022/03/22 05:28:05;;;;;;;14.00;11.23;;;2.70;90.80;;;;;;5048626;28;20201;-82
2022/03/22 05:30:33;;;;;;;14.05;12.43;;;2.70;90.90;;;;;;5048871;28;20225;-83
2022/03/22 05:32:59;;;;;;;12.65;11.40;;;2.70;91.10;;;;;;5049100;28;20215;-83
2022/03/22 05:35:26;;;;;;;15.85;13.90;;;2.70;91.40;;;;;;5048871;28;20220;-84
2022/03/22 05:37:53;;;;;;;16.45;13.65;;;2.70;91.60;;;;;;5048636;28;20211;-82
2022/03/22 05:40:20;;;;;;;13.55;11.90;;;2.70;91.80;;;;;;5048453;28;20223;-84
2022/03/22 05:42:47;;;;;;;14.27;11.50;;;2.70;91.90;;;;;;5048628;28;20241;-82
2022/03/22 05:45:15;;;;;;;14.82;13.30;;;2.70;92.10;;;;;;5048543;28;20207;-82
2022/03/22 05:47:42;;;;;;;15.77;12.10;;;2.70;92.20;;;;;;5049111;28;20211;-83
2022/03/22 05:50:09;;;;;;;16.48;12.90;;;2.70;92.40;;;;;;5048199;28;20232;-84
2022/03/22 05:52:41;;;;;;;25.60;14.85;;;2.70;92.40;;;;;;5044756;28;20201;-80
2022/03/22 05:55:09;;;;;;;18.95;14.57;;;2.70;92.40;;;;;;5038128;28;20213;-80
2022/03/22 05:57:36;;;;;;;17.40;15.57;;;2.70;92.30;;;;;;5042265;28;20226;-80
2022/03/22 06:00:03;;;;;;;16.60;12.88;;;2.70;92.10;;;;;;5042428;28;20237;-80
2022/03/22 06:02:31;;;;;;;14.25;11.93;;;2.80;92.00;;;;;;5042948;28;20251;-80
2022/03/22 06:04:58;;;;;;;21.90;13.40;;;2.80;91.90;;;;;;5058567;28;20214;-80
2022/03/22 06:07:25;;;;;;;23.23;13.68;;;2.90;91.90;;;;;;5059533;28;20190;-79
2022/03/22 06:09:52;;;;;;;16.63;13.60;;;2.90;91.70;;;;;;5057795;28;20236;-80
2022/03/22 06:12:19;;;;;;;17.77;12.80;;;2.90;91.70;;;;;;5055601;28;20212;-80
2022/03/22 06:14:46;;;;;;;16.70;13.77;;;2.90;91.60;;;;;;5057540;28;20225;-80
2022/03/22 06:17:13;;;;;;;18.23;12.55;;;2.90;91.50;;;;;;5059249;28;20235;-80
2022/03/22 06:19:41;;;;;;;15.35;13.75;;;3.00;91.40;;;;;;5058073;28;20215;-79
2022/03/22 06:22:07;;;;;;;16.10;12.70;;;3.10;91.30;;;;;;5058803;28;20220;-80
2022/03/22 06:24:34;;;;;;;18.38;13.52;;;3.20;90.90;;;;;;5058718;28;20188;-80
2022/03/22 06:27:01;;;;;;;17.05;13.23;;;3.20;90.70;;;;;;5055289;28;20201;-79
2022/03/22 06:29:27;;;;;;;15.35;12.50;;;3.20;90.60;;;;;;5044184;28;20202;-81
2022/03/22 06:31:54;;;;;;;16.20;12.70;;;3.30;90.60;;;;;;5038116;28;20224;-81
2022/03/22 06:34:21;;;;;;;14.98;13.00;;;3.40;90.90;;;;;;5038715;28;20217;-81
2022/03/22 06:36:49;;;;;;;20.63;13.68;;;3.50;92.10;;;;;;5037770;28;20212;-81
2022/03/22 06:39:15;;;;;;;16.60;13.63;;;3.60;93.50;;;;;;5038664;28;20222;-81
2022/03/22 06:41:42;;;;;;;19.60;13.63;;;3.70;93.80;;;;;;5050143;28;20202;-81
2022/03/22 06:44:10;;;;;;;20.38;14.23;;;3.80;95.00;;;;;;5050923;28;20212;-84
2022/03/22 06:46:37;;;;;;;14.30;12.48;;;3.90;93.80;;;;;;5051182;28;20244;-81
2022/03/22 06:49:05;;;;;;;24.02;15.20;;;4.10;92.60;;;;;;5051598;28;20200;-83
2022/03/22 06:51:32;;;;;;;28.48;14.70;;;4.30;92.10;;;;;;5049866;28;20230;-85
2022/03/22 06:54:00;;;;;;;15.57;13.80;;;4.50;91.10;;;;;;5044453;28;20202;-83
2022/03/22 06:56:27;;;;;;;19.23;13.05;;;4.60;90.50;;;;;;5045008;28;20194;-83
2022/03/22 06:58:54;;;;;;;19.45;13.27;;;4.70;90.50;;;;;;5049391;28;20229;-85
2022/03/22 07:01:21;;;;;;;17.67;14.02;;;4.80;90.20;;;;;;5044989;28;20222;-84
2022/03/22 07:03:47;;;;;;;19.70;14.57;;;4.90;89.40;;;;;;5041640;28;20301;-83
2022/03/22 07:06:14;;;;;;;21.83;15.15;;;4.90;88.60;;;;;;5043757;28;20210;-85
2022/03/22 07:08:41;;;;;;;15.45;13.95;;;5.10;88.30;;;;;;5044854;28;20210;-84
2022/03/22 07:13:54;;;;;;;19.13;14.60;;;5.30;86.60;;;;;;5042288;28;20189;-82
2022/03/22 07:16:21;;;;;;;16.88;14.23;;;5.40;86.30;;;;;;5035545;28;20205;-82
2022/03/22 07:18:47;;;;;;;16.75;14.65;;;5.50;86.50;;;;;;5028518;28;20223;-81
2022/03/22 07:21:14;;;;;;;17.20;15.35;;;5.60;85.90;;;;;;5026203;28;20225;-81
2022/03/22 07:23:41;;;;;;;19.38;14.52;;;5.80;83.90;;;;;;5031016;28;20195;-82
2022/03/22 07:26:09;;;;;;;19.88;14.65;;;5.90;83.40;;;;;;5025606;28;20306;-82
2022/03/22 07:28:36;;;;;;;16.70;14.30;;;6.00;83.10;;;;;;5033408;28;20205;-81
2022/03/22 07:31:03;;;;;;;19.52;16.65;;;6.10;84.60;;;;;;5025207;28;20723;-81
2022/03/22 07:33:30;;;;;;;18.90;14.95;;;6.20;85.20;;;;;;5036959;28;20198;-82
2022/03/22 07:35:56;;;;;;;22.65;15.15;;;6.30;84.20;;;;;;5028448;28;20207;-80
2022/03/22 07:38:24;;;;;;;15.13;13.52;;;6.40;82.80;;;;;;5041832;28;20218;-84
2022/03/22 07:40:56;;;;;;;18.42;16.45;;;6.50;82.60;;;;;;5038427;28;20218;-82
2022/03/22 07:43:26;;;;;;;24.17;14.77;;;6.50;81.90;;;;;;5037222;28;20226;-83
2022/03/22 07:45:53;;;;;;;25.42;15.52;;;6.60;81.60;;;;;;5039093;28;20198;-82
2022/03/22 07:48:20;;;;;;;16.33;13.20;;;6.70;81.50;;;;;;5036940;28;20551;-82
2022/03/22 07:53:31;;;;;;;24.52;14.82;;;6.90;82.00;;;;;;5037182;28;20193;-82
2022/03/22 07:55:58;;;;;;;20.35;15.00;;;6.90;82.70;;;;;;5036386;28;20206;-83
2022/03/22 07:58:36;;;;;;;18.65;16.45;;;7.00;81.70;;;;;;5020678;28;20220;-84
2022/03/22 08:01:03;;;;;;;22.52;15.73;;;7.20;81.20;;;;;;5008711;28;20222;-81
2022/03/22 08:03:29;;;;;;;18.05;15.27;;;7.30;81.20;;;;;;5069307;28;20205;-82
2022/03/22 08:05:56;;;;;;;18.40;15.63;;;7.30;80.30;;;;;;5053907;28;20200;-85
2022/03/22 08:08:23;;;;;;;17.95;14.82;;;7.50;80.10;;;;;;5040055;28;20201;-81
2022/03/22 08:10:51;;;;;;;19.85;16.13;;;7.60;79.70;;;;;;5042903;28;20214;-85
2022/03/22 08:13:18;;;;;;;17.85;15.68;;;7.60;78.00;;;;;;5040257;28;20230;-82
2022/03/22 08:15:46;;;;;;;22.35;15.70;;;7.60;78.60;;;;;;5041703;28;20206;-81
2022/03/22 08:18:13;;;;;;;19.50;17.15;;;7.70;79.80;;;;;;5034113;28;20231;-81
2022/03/22 08:20:39;;;;;;;22.27;17.58;;;7.90;79.30;;;;;;5048318;28;20226;-81
2022/03/22 08:23:07;;;;;;;18.63;16.50;;;8.00;79.20;;;;;;5045110;28;20690;-80
2022/03/22 08:25:36;;;;;;;29.13;16.63;;;8.00;78.60;;;;;;5039024;28;20264;-81
2022/03/22 08:28:05;;;;;;;19.05;15.55;;;8.10;78.10;;;;;;5037221;28;20206;-80
2022/03/22 08:30:32;;;;;;;18.75;15.25;;;8.20;77.70;;;;;;5037702;28;20735;-81
2022/03/22 08:33:06;;;;;;;21.60;15.93;;;8.40;77.00;;;;;;5039762;28;20238;-80
2022/03/22 08:35:33;;;;;;;19.48;17.30;;;8.40;77.80;;;;;;5040714;28;20210;-84
2022/03/22 08:38:00;;;;;;;28.83;17.27;;;8.50;77.20;;;;;;5037734;28;20238;-80
2022/03/22 08:40:28;;;;;;;19.45;15.48;;;8.70;76.90;;;;;;5037621;28;20237;-81
2022/03/22 08:42:58;;;;;;;17.83;14.20;;;8.70;77.30;;;;;;5036695;28;20220;-84
2022/03/22 08:45:32;;;;;;;20.90;16.77;;;8.90;76.70;;;;;;5037203;28;20675;-83
2022/03/22 08:48:02;;;;;;;17.47;15.63;;;9.00;77.90;;;;;;5033855;28;20203;-81
2022/03/22 08:50:29;;;;;;;20.43;15.93;;;9.10;76.90;;;;;;5035040;28;20487;-80
2022/03/22 08:52:57;;;;;;;18.13;16.27;;;9.30;75.80;;;;;;5039058;28;20462;-80
2022/03/22 08:55:25;;;;;;;18.80;17.00;;;9.40;75.40;;;;;;5038120;28;20461;-81
2022/03/22 08:57:52;;;;;;;18.77;16.77;;;9.40;74.60;;;;;;5036977;28;20213;-82
2022/03/22 09:00:19;;;;;;;18.20;16.00;;;9.40;73.50;;;;;;5042526;28;20472;-81
2022/03/22 09:02:49;;;;;;;19.63;17.07;;;9.60;73.70;;;;;;5044145;28;20454;-81
2022/03/22 09:08:05;;;;;;;18.33;14.45;;;9.70;72.50;;;;;;5040706;28;20422;-82
2022/03/22 09:10:34;;;;;;;22.43;15.50;;;9.80;73.70;;;;;;5038095;28;20234;-82
2022/03/22 09:13:01;;;;;;;19.63;15.80;;;10.00;71.00;;;;;;5038386;28;20453;-83
2022/03/22 09:15:29;;;;;;;16.77;14.93;;;10.10;68.70;;;;;;5036668;28;20464;-82
2022/03/22 09:17:57;;;;;;;14.47;13.07;;;10.10;70.20;;;;;;5035949;28;20459;-83
2022/03/22 09:20:26;;;;;;;17.67;15.07;;;10.40;70.30;;;;;;5034525;28;20486;-82
2022/03/22 09:22:53;;;;;;;17.50;15.53;;;10.50;69.30;;;;;;5034278;28;20798;-81
2022/03/22 09:25:22;;;;;;;15.77;13.27;;;10.60;69.90;;;;;;5035766;28;20457;-82
2022/03/22 09:27:49;;;;;;;16.07;14.43;;;10.80;70.40;;;;;;5035183;28;20462;-82
2022/03/22 09:30:19;;;;;;;17.23;14.73;;;11.00;67.40;;;;;;5037022;28;20487;-83
2022/03/22 09:32:48;;;;;;;15.93;14.23;;;11.10;67.00;;;;;;5038317;28;20452;-82
2022/03/22 09:35:31;;;;;;;14.07;12.73;;;11.20;67.20;;;;;;5047795;28;20464;-85
2022/03/22 09:38:00;;;;;;;27.07;15.50;;;11.30;65.40;;;;;;5054697;28;20511;-81
2022/03/22 09:40:27;;;;;;;14.97;13.43;;;11.40;65.00;;;;;;5045449;28;21008;-81
2022/03/22 09:42:55;;;;;;;15.23;13.67;;;11.40;63.60;;;;;;5043119;28;20464;-80
2022/03/22 09:45:25;;;;;;;16.20;14.50;;;11.50;63.50;;;;;;5042983;28;20427;-80
2022/03/22 09:47:53;;;;;;;15.97;14.30;;;11.70;63.40;;;;;;5044987;28;20495;-82
2022/03/22 09:51:44;;;;;;;20.80;16.00;;;11.80;64.10;;;;;;5046156;28;20468;-81
2022/03/22 09:53:09;;;;;;;19.07;15.10;;;11.90;63.30;;;;;;5046184;28;20448;-80
2022/03/22 09:55:36;;;;;;;14.87;13.30;;;12.00;61.50;;;;;;5046638;28;20456;-83
2022/03/22 09:58:03;;;;;;;15.03;13.53;;;12.20;62.20;;;;;;5047844;28;20467;-82
2022/03/22 10:00:29;;;;;;;15.00;13.50;;;12.20;62.80;;;;;;5044984;28;20469;-81
2022/03/22 10:02:56;;;;;;;18.20;16.10;;;12.30;64.40;;;;;;5044928;28;20449;-81
2022/03/22 10:05:24;;;;;;;17.17;15.17;;;12.50;62.90;;;;;;5045299;28;20459;-83
2022/03/22 10:07:59;;;;;;;16.40;14.53;;;12.70;60.10;;;;;;5046631;28;20457;-80
2022/03/22 10:10:28;;;;;;;15.97;14.40;;;12.80;58.90;;;;;;5040889;28;20498;-79
2022/03/22 10:13:00;;;;;;;16.90;14.90;;;12.90;59.30;;;;;;5043581;28;20480;-81
2022/03/22 10:15:31;;;;;;;16.90;15.10;;;13.00;59.60;;;;;;5042352;28;20475;-79
2022/03/22 10:18:09;;;;;;;17.10;14.70;;;13.20;59.10;;;;;;5045830;28;20449;-80
2022/03/22 10:20:37;;;;;;;16.70;15.00;;;13.30;57.50;;;;;;5038716;28;20527;-79
2022/03/22 10:23:09;;;;;;;15.63;14.00;;;13.40;58.10;;;;;;5038041;28;20454;-79
2022/03/22 10:25:41;;;;;;;18.60;14.90;;;13.50;58.70;;;;;;5040933;28;20474;-79
2022/03/22 10:28:09;;;;;;;16.43;12.60;;;13.80;59.50;;;;;;5041146;28;20449;-80
2022/03/22 10:30:37;;;;;;;17.27;15.30;;;14.00;56.60;;;;;;5038460;28;20466;-80
2022/03/22 10:33:04;;;;;;;19.40;15.10;;;14.20;56.00;;;;;;5038143;28;20455;-78
2022/03/22 10:35:32;;;;;;;18.33;16.43;;;14.30;54.70;;;;;;5037178;28;20452;-77
2022/03/22 10:38:02;;;;;;;15.87;14.17;;;14.10;53.20;;;;;;5036388;28;20452;-78
2022/03/22 10:40:32;;;;;;;17.43;15.63;;;13.90;53.30;;;;;;5034902;28;20573;-78
2022/03/22 10:43:02;;;;;;;16.77;14.27;;;13.90;53.50;;;;;;5033898;28;20461;-77
2022/03/22 10:45:29;;;;;;;17.23;15.63;;;13.90;54.10;;;;;;5035627;28;20449;-78
2022/03/22 10:47:58;;;;;;;16.30;14.73;;;13.90;54.20;;;;;;5037370;28;20486;-79
2022/03/22 10:50:25;;;;;;;16.37;14.67;;;14.00;53.60;;;;;;5037944;28;20484;-79
2022/03/22 10:52:56;;;;;;;15.87;14.47;;;14.00;52.50;;;;;;5036843;28;20453;-78
2022/03/22 10:55:27;;;;;;;15.40;13.73;;;14.10;54.40;;;;;;5037018;28;20470;-78
2022/03/22 10:57:56;;;;;;;16.37;14.77;;;14.50;52.30;;;;;;5037684;28;20455;-79
2022/03/22 11:00:26;;;;;;;15.70;14.13;;;14.50;50.80;;;;;;5036094;28;20743;-78
2022/03/22 11:02:54;;;;;;;14.77;13.33;;;14.70;52.80;;;;;;5037968;28;20449;-78
2022/03/22 11:05:23;;;;;;;16.07;14.57;;;15.00;53.00;;;;;;5038712;28;20444;-80
2022/03/22 11:07:51;;;;;;;16.50;14.77;;;15.20;50.80;;;;;;5039681;28;20458;-79
2022/03/22 11:10:19;;;;;;;15.80;14.27;;;15.80;50.40;;;;;;5039599;28;20978;-81
2022/03/22 11:12:46;;;;;;;15.13;13.73;;;16.30;49.40;;;;;;5040426;28;20455;-80
2022/03/22 11:15:14;;;;;;;17.10;14.00;;;16.90;48.90;;;;;;5039566;28;20452;-80
2022/03/22 11:17:45;;;;;;;18.10;15.73;;;17.70;48.70;;;;;;5039765;28;20464;-80
2022/03/22 11:20:14;;;;;;;17.10;15.30;;;18.00;45.60;;;;;;5038826;28;20479;-80
2022/03/22 11:22:48;;;;;;;19.17;17.23;;;18.50;45.40;;;;;;5038083;28;20453;-80
2022/03/22 11:25:18;;;;;;;23.30;16.60;;;19.10;45.80;;;;;;5039150;28;20460;-79
2022/03/22 11:27:56;;;;;;;17.80;16.00;;;19.50;44.60;;;;;;5040101;28;20449;-80
2022/03/22 11:30:23;;;;;;;18.33;16.13;;;19.90;44.40;;;;;;5039095;28;20485;-81
2022/03/22 11:35:53;;;;;;;18.23;16.40;;;20.80;42.90;;;;;;5040521;28;20543;-79
2022/03/22 11:38:44;;;;;;;17.20;15.50;;;21.30;41.20;;;;;;5042202;28;20486;-80
2022/03/22 11:44:16;;;;;;;18.70;16.87;;;21.70;40.70;;;;;;5041715;28;20531;-80
2022/03/22 11:46:44;;;;;;;18.90;17.07;;;22.00;40.40;;;;;;5040397;28;20945;-80
2022/03/22 11:49:21;;;;;;;21.20;18.00;;;22.30;40.50;;;;;;5037293;28;20457;-79
2022/03/22 11:51:49;;;;;;;21.73;19.43;;;22.50;40.30;;;;;;5038919;28;20808;-78
2022/03/22 11:54:16;;;;;;;23.00;20.67;;;22.20;38.00;;;;;;5041311;28;20457;-80
2022/03/22 11:56:47;;;;;;;21.20;19.30;;;21.50;37.70;;;;;;5037714;28;20446;-79
2022/03/22 11:59:16;;;;;;;20.33;18.40;;;21.10;38.70;;;;;;5037798;28;20488;-81
2022/03/22 12:01:56;;;;;;;18.17;16.47;;;21.20;39.00;;;;;;5036672;28;20454;-82
2022/03/22 12:04:34;;;;;;;17.93;16.13;;;21.10;38.70;;;;;;5038259;28;20454;-82
2022/03/22 12:07:02;;;;;;;20.90;18.83;;;21.20;37.40;;;;;;5045598;28;20490;-82
2022/03/22 12:09:28;;;;;;;19.43;17.40;;;21.40;38.10;;;;;;5045687;28;20456;-82
2022/03/22 12:11:56;;;;;;;18.47;16.57;;;21.60;36.80;;;;;;5045094;28;20458;-81
2022/03/22 12:14:27;;;;;;;20.10;18.37;;;21.80;37.00;;;;;;5059795;28;20545;-81
2022/03/22 12:16:54;;;;;;;17.33;15.60;;;21.80;37.70;;;;;;5047562;28;20454;-80
2022/03/22 12:19:28;;;;;;;20.33;18.50;;;22.40;37.30;;;;;;5038930;28;20491;-81
2022/03/22 12:21:56;;;;;;;19.67;17.83;;;22.80;37.10;;;;;;5037120;28;20490;-81
2022/03/22 12:24:24;;;;;;;17.67;16.17;;;23.20;34.60;;;;;;5038276;28;20536;-80
2022/03/22 12:26:52;;;;;;;17.50;15.80;;;23.40;33.80;;;;;;5038111;28;20456;-82
2022/03/22 12:29:19;;;;;;;17.00;15.43;;;23.50;34.30;;;;;;5040604;28;20449;-81
2022/03/22 12:31:49;;;;;;;17.90;16.30;;;24.10;34.70;;;;;;5037896;28;20460;-81
2022/03/22 12:41:04;;;;;;;15.23;13.93;;;26.60;31.60;;;;;;4981034;28;20589;-81
2022/03/22 12:43:31;;;;;;;16.67;15.30;;;27.90;30.00;;;;;;5018919;28;20458;-82
2022/03/22 12:45:58;;;;;;;16.93;15.33;;;28.80;28.60;;;;;;5034086;28;20460;-81
2022/03/22 12:48:25;;;;;;;13.70;12.50;;;28.50;26.40;;;;;;5076989;22;20893;-84
2022/03/22 12:50:54;;;;;;;14.60;13.40;;;29.00;27.50;;;;;;5040126;28;21145;-84
2022/03/22 12:53:23;;;;;;;13.77;12.47;;;29.90;25.90;;;;;;5039842;28;20956;-84
2022/03/22 12:56:15;;;;;;;14.57;13.30;;;30.60;25.10;;;;;;5040153;28;20974;-85
2022/03/22 12:58:51;;;;;;;14.93;13.83;;;31.00;24.80;;;;;;5020488;28;20813;-85
2022/03/22 13:01:18;;;;;;;17.63;16.03;;;31.50;23.50;;;;;;4998150;28;20457;-85
2022/03/22 13:16:26;;;;;;;17.10;15.53;;;31.90;24.20;;;;;;4990094;28;20451;-85
2022/03/22 13:18:54;;;;;;;20.33;18.47;;;32.30;23.80;;;;;;5021582;28;20457;-86
2022/03/22 13:21:25;;;;;;;19.07;17.37;;;32.70;23.40;;;;;;5020816;28;20482;-85
2022/03/22 13:24:02;;;;;;;21.23;19.37;;;32.60;22.50;;;;;;5022795;28;20443;-85
2022/03/22 13:26:29;;;;;;;19.30;17.70;;;31.00;23.00;;;;;;5024359;28;20459;-84
2022/03/22 13:28:57;;;;;;;21.93;19.63;;;30.60;23.80;;;;;;5022955;28;20456;-85
2022/03/22 13:31:25;;;;;;;20.80;18.90;;;30.30;24.30;;;;;;5021439;28;20472;-85
2022/03/22 13:33:56;;;;;;;20.50;18.50;;;29.40;23.90;;;;;;5025453;28;20953;-84